VTSH  Songkhla Airport

Add Bookmark

Thailand

Status IATA
Operational SGZ
Latitude Longitude
7° 11' 11" N 100° 36' 28" E
7.186560 100.608002
Local (DST + 7) UTC (GMT + 7)
Nov 26, 2014 03:28 Nov 25, 2014 20:28
Sunrise-Sunset Local UTC
Begin Civil Twilight 05:48 22:48
Sunrise 06:11 23:11
Sunset 05:58 10:58
End Civil Twilight 06:20 11:20

Current Weather

METAR Observed VFR
VTSH 250700Z 06004KT 9000 FEW020 BKN300 30/27 Q1008 A2977 Tue, Nov 25, 2014 @ 07:00 UTC
(13 Hours, 28 Minutes ago)
Visual Flight Rules
Wind Visibility Clouds Conditions
060° at 4 knots (7 kph) 9000 meters
  • Few at 2,000' AGL
  • Broken at 30,000' AGL
  • No significant weather
Temperatures Readings Precipitation
Current Temp 30°C (86°F)
Dewpoint 27°C (81°F)
Heat Index 39°C (102°F)
Humidity 84%
Altimeter 29.76"Hg
Sea Level Pressure 1008mb
Field Elevation 16.4'
None Recorded

Additional weather within a 92.6km radius of VTSH

Map ICAO Location
VTSS 36.9km S (220°)

24 Hour Weather History

Loading
-

24 Hour Weather Graphs

Loading
-

CheckWX.com is intended as a tool to help pilots better visualize weather data. It is not intended as a substitute for an official weather briefing obtained from a Flight Service Station. CheckWX.com does not meet the FAA requirements for an official pre-flight weather briefing. Therefore, it's important that pilots still call and obtain an official FSS pre-flight weather briefing.